sensor_id;sensor_type;location;lat;lon;timestamp;temperature;humidity
33943;DHT22;66763;47.856;17.462;2023-12-20T00:02:23;11.10;50.40
33943;DHT22;66763;47.856;17.462;2023-12-20T00:04:48;11.20;50.50
33943;DHT22;66763;47.856;17.462;2023-12-20T00:07:14;11.20;50.50
33943;DHT22;66763;47.856;17.462;2023-12-20T00:09:39;11.20;50.50
33943;DHT22;66763;47.856;17.462;2023-12-20T00:12:05;11.20;50.50
33943;DHT22;66763;47.856;17.462;2023-12-20T00:14:30;11.20;50.40
33943;DHT22;66763;47.856;17.462;2023-12-20T00:16:56;11.20;50.00
33943;DHT22;66763;47.856;17.462;2023-12-20T00:19:21;11.20;50.40
33943;DHT22;66763;47.856;17.462;2023-12-20T00:21:47;11.40;50.30
33943;DHT22;66763;47.856;17.462;2023-12-20T00:24:12;11.60;50.30
33943;DHT22;66763;47.856;17.462;2023-12-20T00:26:37;11.60;50.10
33943;DHT22;66763;47.856;17.462;2023-12-20T00:29:03;11.80;49.90
33943;DHT22;66763;47.856;17.462;2023-12-20T00:31:28;11.80;49.90
33943;DHT22;66763;47.856;17.462;2023-12-20T00:33:54;11.90;49.70
33943;DHT22;66763;47.856;17.462;2023-12-20T00:36:20;11.90;49.20
33943;DHT22;66763;47.856;17.462;2023-12-20T00:38:45;12.10;49.50
33943;DHT22;66763;47.856;17.462;2023-12-20T00:41:11;12.10;49.30
33943;DHT22;66763;47.856;17.462;2023-12-20T00:43:36;12.20;49.30
33943;DHT22;66763;47.856;17.462;2023-12-20T00:46:01;12.30;49.30
33943;DHT22;66763;47.856;17.462;2023-12-20T00:48:27;12.40;49.20
33943;DHT22;66763;47.856;17.462;2023-12-20T00:50:52;12.40;49.20
33943;DHT22;66763;47.856;17.462;2023-12-20T00:53:18;12.40;49.10
33943;DHT22;66763;47.856;17.462;2023-12-20T00:55:44;12.50;49.10
33943;DHT22;66763;47.856;17.462;2023-12-20T00:58:10;12.70;49.10
33943;DHT22;66763;47.856;17.462;2023-12-20T01:00:35;12.60;48.40
33943;DHT22;66763;47.856;17.462;2023-12-20T01:03:01;12.70;49.00
33943;DHT22;66763;47.856;17.462;2023-12-20T01:05:26;12.50;48.80
33943;DHT22;66763;47.856;17.462;2023-12-20T01:07:52;12.70;48.90
33943;DHT22;66763;47.856;17.462;2023-12-20T01:10:17;12.80;49.00
33943;DHT22;66763;47.856;17.462;2023-12-20T01:12:43;12.70;48.90
33943;DHT22;66763;47.856;17.462;2023-12-20T01:15:08;12.70;48.90
33943;DHT22;66763;47.856;17.462;2023-12-20T01:17:34;12.80;49.00
33943;DHT22;66763;47.856;17.462;2023-12-20T01:20:00;12.60;48.90
33943;DHT22;66763;47.856;17.462;2023-12-20T01:22:25;12.60;49.00
33943;DHT22;66763;47.856;17.462;2023-12-20T01:24:51;12.60;49.00
33943;DHT22;66763;47.856;17.462;2023-12-20T01:27:16;12.50;49.10
33943;DHT22;66763;47.856;17.462;2023-12-20T01:29:42;12.40;49.10
33943;DHT22;66763;47.856;17.462;2023-12-20T01:32:07;12.50;48.80
33943;DHT22;66763;47.856;17.462;2023-12-20T01:34:33;12.80;49.10
33943;DHT22;66763;47.856;17.462;2023-12-20T01:36:58;12.40;49.40
33943;DHT22;66763;47.856;17.462;2023-12-20T01:39:24;12.40;49.40
33943;DHT22;66763;47.856;17.462;2023-12-20T01:41:49;12.80;49.10
33943;DHT22;66763;47.856;17.462;2023-12-20T01:44:15;12.60;49.10
33943;DHT22;66763;47.856;17.462;2023-12-20T01:46:40;12.30;49.50
33943;DHT22;66763;47.856;17.462;2023-12-20T01:49:06;12.30;49.50
33943;DHT22;66763;47.856;17.462;2023-12-20T01:51:32;12.10;49.00
33943;DHT22;66763;47.856;17.462;2023-12-20T01:53:58;12.10;49.00
33943;DHT22;66763;47.856;17.462;2023-12-20T01:56:24;12.20;49.60
33943;DHT22;66763;47.856;17.462;2023-12-20T01:58:50;12.20;49.60
33943;DHT22;66763;47.856;17.462;2023-12-20T02:01:16;12.20;49.70
33943;DHT22;66763;47.856;17.462;2023-12-20T02:03:41;12.20;49.70
33943;DHT22;66763;47.856;17.462;2023-12-20T02:06:07;12.20;49.70
33943;DHT22;66763;47.856;17.462;2023-12-20T02:08:33;12.10;49.60
33943;DHT22;66763;47.856;17.462;2023-12-20T02:10:59;12.10;49.70
33943;DHT22;66763;47.856;17.462;2023-12-20T02:13:25;11.80;49.20
33943;DHT22;66763;47.856;17.462;2023-12-20T02:15:52;12.10;49.80
33943;DHT22;66763;47.856;17.462;2023-12-20T02:18:17;12.20;49.80
33943;DHT22;66763;47.856;17.462;2023-12-20T02:20:43;12.00;49.70
33943;DHT22;66763;47.856;17.462;2023-12-20T02:23:08;12.00;49.80
33943;DHT22;66763;47.856;17.462;2023-12-20T02:25:33;11.90;49.80
33943;DHT22;66763;47.856;17.462;2023-12-20T02:27:59;11.80;49.70
33943;DHT22;66763;47.856;17.462;2023-12-20T02:30:24;11.90;49.70
33943;DHT22;66763;47.856;17.462;2023-12-20T02:32:50;11.90;49.90
33943;DHT22;66763;47.856;17.462;2023-12-20T02:35:16;12.00;49.40
33943;DHT22;66763;47.856;17.462;2023-12-20T02:37:42;12.50;50.10
33943;DHT22;66763;47.856;17.462;2023-12-20T02:40:07;11.90;49.80
33943;DHT22;66763;47.856;17.462;2023-12-20T02:42:33;11.90;49.80
33943;DHT22;66763;47.856;17.462;2023-12-20T02:44:58;11.90;49.90
33943;DHT22;66763;47.856;17.462;2023-12-20T02:47:24;11.90;49.90
33943;DHT22;66763;47.856;17.462;2023-12-20T02:49:49;11.90;49.90
33943;DHT22;66763;47.856;17.462;2023-12-20T02:52:15;11.90;50.00
33943;DHT22;66763;47.856;17.462;2023-12-20T02:54:40;11.60;49.30
33943;DHT22;66763;47.856;17.462;2023-12-20T02:57:06;11.80;49.90
33943;DHT22;66763;47.856;17.462;2023-12-20T02:59:31;11.80;49.90
33943;DHT22;66763;47.856;17.462;2023-12-20T03:01:57;11.80;49.90
33943;DHT22;66763;47.856;17.462;2023-12-20T03:04:22;11.70;49.50
33943;DHT22;66763;47.856;17.462;2023-12-20T03:06:48;11.70;50.10
33943;DHT22;66763;47.856;17.462;2023-12-20T03:09:13;11.80;50.00
33943;DHT22;66763;47.856;17.462;2023-12-20T03:11:39;11.80;50.00
33943;DHT22;66763;47.856;17.462;2023-12-20T03:14:04;11.60;49.90
33943;DHT22;66763;47.856;17.462;2023-12-20T03:16:30;11.80;50.10
33943;DHT22;66763;47.856;17.462;2023-12-20T03:18:56;11.80;50.00
33943;DHT22;66763;47.856;17.462;2023-12-20T03:21:22;11.60;50.00
33943;DHT22;66763;47.856;17.462;2023-12-20T03:23:47;11.70;50.10
33943;DHT22;66763;47.856;17.462;2023-12-20T03:26:13;11.70;49.50
33943;DHT22;66763;47.856;17.462;2023-12-20T03:28:39;11.80;50.10
33943;DHT22;66763;47.856;17.462;2023-12-20T03:31:05;11.70;49.50
33943;DHT22;66763;47.856;17.462;2023-12-20T03:33:30;11.60;50.00
33943;DHT22;66763;47.856;17.462;2023-12-20T03:35:56;11.70;49.70
33943;DHT22;66763;47.856;17.462;2023-12-20T03:38:21;11.70;50.10
33943;DHT22;66763;47.856;17.462;2023-12-20T03:40:47;11.50;50.00
33943;DHT22;66763;47.856;17.462;2023-12-20T03:43:12;11.50;50.00
33943;DHT22;66763;47.856;17.462;2023-12-20T03:45:38;11.60;50.10
33943;DHT22;66763;47.856;17.462;2023-12-20T03:48:03;11.60;49.60
33943;DHT22;66763;47.856;17.462;2023-12-20T03:50:29;11.50;50.00
33943;DHT22;66763;47.856;17.462;2023-12-20T03:52:54;11.70;50.20
33943;DHT22;66763;47.856;17.462;2023-12-20T03:55:20;11.30;49.50
33943;DHT22;66763;47.856;17.462;2023-12-20T03:57:45;11.70;50.20
33943;DHT22;66763;47.856;17.462;2023-12-20T04:00:11;11.50;50.10
33943;DHT22;66763;47.856;17.462;2023-12-20T04:02:37;11.50;50.20
33943;DHT22;66763;47.856;17.462;2023-12-20T04:05:03;11.60;49.70
33943;DHT22;66763;47.856;17.462;2023-12-20T04:07:29;11.40;50.00
33943;DHT22;66763;47.856;17.462;2023-12-20T04:09:55;11.40;50.10
33943;DHT22;66763;47.856;17.462;2023-12-20T04:12:20;11.40;50.10
33943;DHT22;66763;47.856;17.462;2023-12-20T04:14:46;11.50;49.60
33943;DHT22;66763;47.856;17.462;2023-12-20T04:17:11;11.40;50.10
33943;DHT22;66763;47.856;17.462;2023-12-20T04:19:37;11.40;50.10
33943;DHT22;66763;47.856;17.462;2023-12-20T04:22:02;11.40;50.10
33943;DHT22;66763;47.856;17.462;2023-12-20T04:24:28;11.50;50.20
33943;DHT22;66763;47.856;17.462;2023-12-20T04:26:53;11.30;50.10
33943;DHT22;66763;47.856;17.462;2023-12-20T04:29:19;11.40;50.10
33943;DHT22;66763;47.856;17.462;2023-12-20T04:31:44;11.50;49.70
33943;DHT22;66763;47.856;17.462;2023-12-20T04:34:10;11.60;49.80
33943;DHT22;66763;47.856;17.462;2023-12-20T04:36:35;11.90;50.50
33943;DHT22;66763;47.856;17.462;2023-12-20T04:39:01;11.50;50.20
33943;DHT22;66763;47.856;17.462;2023-12-20T04:41:26;11.30;50.10
33943;DHT22;66763;47.856;17.462;2023-12-20T04:43:52;11.40;50.20
33943;DHT22;66763;47.856;17.462;2023-12-20T04:46:18;11.50;49.70
33943;DHT22;66763;47.856;17.462;2023-12-20T04:48:43;11.50;49.80
33943;DHT22;66763;47.856;17.462;2023-12-20T04:51:09;11.30;50.10
33943;DHT22;66763;47.856;17.462;2023-12-20T04:53:34;11.60;49.90
33943;DHT22;66763;47.856;17.462;2023-12-20T04:56:00;11.30;50.70
33943;DHT22;66763;47.856;17.462;2023-12-20T04:58:25;11.60;49.90
33943;DHT22;66763;47.856;17.462;2023-12-20T05:00:51;11.30;50.30
33943;DHT22;66763;47.856;17.462;2023-12-20T05:03:16;11.30;50.10
33943;DHT22;66763;47.856;17.462;2023-12-20T05:05:42;11.30;50.20
33943;DHT22;66763;47.856;17.462;2023-12-20T05:08:07;11.30;50.20
33943;DHT22;66763;47.856;17.462;2023-12-20T05:10:33;11.30;50.20
33943;DHT22;66763;47.856;17.462;2023-12-20T05:12:59;11.30;50.20
33943;DHT22;66763;47.856;17.462;2023-12-20T05:15:24;10.90;49.50
33943;DHT22;66763;47.856;17.462;2023-12-20T05:17:50;11.20;50.20
33943;DHT22;66763;47.856;17.462;2023-12-20T05:20:15;11.20;50.20
33943;DHT22;66763;47.856;17.462;2023-12-20T05:22:41;11.20;50.20
33943;DHT22;66763;47.856;17.462;2023-12-20T05:25:06;11.30;50.20
33943;DHT22;66763;47.856;17.462;2023-12-20T05:27:32;11.30;50.20
33943;DHT22;66763;47.856;17.462;2023-12-20T05:29:57;11.10;50.10
33943;DHT22;66763;47.856;17.462;2023-12-20T05:32:23;11.20;50.30
33943;DHT22;66763;47.856;17.462;2023-12-20T05:34:49;10.80;49.60
33943;DHT22;66763;47.856;17.462;2023-12-20T05:37:14;11.50;50.00
33943;DHT22;66763;47.856;17.462;2023-12-20T05:39:40;11.60;50.00
33943;DHT22;66763;47.856;17.462;2023-12-20T05:42:05;11.50;50.00
33943;DHT22;66763;47.856;17.462;2023-12-20T05:44:31;11.20;50.30
33943;DHT22;66763;47.856;17.462;2023-12-20T05:46:56;11.10;49.70
33943;DHT22;66763;47.856;17.462;2023-12-20T05:49:22;11.60;50.10
33943;DHT22;66763;47.856;17.462;2023-12-20T05:51:47;11.20;50.30
33943;DHT22;66763;47.856;17.462;2023-12-20T05:54:12;11.00;49.70
33943;DHT22;66763;47.856;17.462;2023-12-20T05:56:38;11.00;50.20
33943;DHT22;66763;47.856;17.462;2023-12-20T05:59:04;11.10;50.30
33943;DHT22;66763;47.856;17.462;2023-12-20T06:01:29;11.00;50.30
33943;DHT22;66763;47.856;17.462;2023-12-20T06:03:55;11.50;50.00
33943;DHT22;66763;47.856;17.462;2023-12-20T06:06:20;11.10;50.30
33943;DHT22;66763;47.856;17.462;2023-12-20T06:08:45;11.10;50.30
33943;DHT22;66763;47.856;17.462;2023-12-20T06:11:11;11.20;50.20
33943;DHT22;66763;47.856;17.462;2023-12-20T06:13:36;11.10;50.20
33943;DHT22;66763;47.856;17.462;2023-12-20T06:16:03;11.10;49.70
33943;DHT22;66763;47.856;17.462;2023-12-20T06:18:28;11.20;50.30
33943;DHT22;66763;47.856;17.462;2023-12-20T06:20:54;11.20;50.30
33943;DHT22;66763;47.856;17.462;2023-12-20T06:23:20;11.20;50.20
33943;DHT22;66763;47.856;17.462;2023-12-20T06:25:45;11.20;50.30
33943;DHT22;66763;47.856;17.462;2023-12-20T06:28:11;11.10;49.50
33943;DHT22;66763;47.856;17.462;2023-12-20T06:30:39;11.20;50.00
33943;DHT22;66763;47.856;17.462;2023-12-20T06:33:05;11.60;50.10
33943;DHT22;66763;47.856;17.462;2023-12-20T06:35:32;12.10;49.70
33943;DHT22;66763;47.856;17.462;2023-12-20T06:37:57;11.80;49.80
33943;DHT22;66763;47.856;17.462;2023-12-20T06:40:23;11.80;49.50
33943;DHT22;66763;47.856;17.462;2023-12-20T06:42:49;12.00;49.60
33943;DHT22;66763;47.856;17.462;2023-12-20T06:45:14;12.10;48.90
33943;DHT22;66763;47.856;17.462;2023-12-20T06:47:40;12.10;49.30
33943;DHT22;66763;47.856;17.462;2023-12-20T06:50:05;12.20;49.30
33943;DHT22;66763;47.856;17.462;2023-12-20T06:52:31;12.30;49.20
33943;DHT22;66763;47.856;17.462;2023-12-20T06:54:56;12.10;49.00
33943;DHT22;66763;47.856;17.462;2023-12-20T06:57:22;11.90;48.40
33943;DHT22;66763;47.856;17.462;2023-12-20T06:59:47;12.20;48.90
33943;DHT22;66763;47.856;17.462;2023-12-20T07:02:13;12.40;48.90
33943;DHT22;66763;47.856;17.462;2023-12-20T07:04:39;12.50;48.40
33943;DHT22;66763;47.856;17.462;2023-12-20T07:07:04;12.70;48.30
33943;DHT22;66763;47.856;17.462;2023-12-20T07:09:30;12.50;48.70
33943;DHT22;66763;47.856;17.462;2023-12-20T07:11:55;12.70;48.80
33943;DHT22;66763;47.856;17.462;2023-12-20T07:14:20;12.60;48.80
33943;DHT22;66763;47.856;17.462;2023-12-20T07:16:46;12.60;48.70
33943;DHT22;66763;47.856;17.462;2023-12-20T07:19:12;12.50;48.60
33943;DHT22;66763;47.856;17.462;2023-12-20T07:21:37;12.50;48.60
33943;DHT22;66763;47.856;17.462;2023-12-20T07:24:03;12.50;48.70
33943;DHT22;66763;47.856;17.462;2023-12-20T07:26:28;12.50;48.60
33943;DHT22;66763;47.856;17.462;2023-12-20T07:28:54;12.50;48.80
33943;DHT22;66763;47.856;17.462;2023-12-20T07:31:19;12.50;48.90
33943;DHT22;66763;47.856;17.462;2023-12-20T07:33:45;12.50;48.80
33943;DHT22;66763;47.856;17.462;2023-12-20T07:36:10;12.50;48.40
33943;DHT22;66763;47.856;17.462;2023-12-20T07:38:36;12.40;48.90
33943;DHT22;66763;47.856;17.462;2023-12-20T07:41:02;12.40;49.10
33943;DHT22;66763;47.856;17.462;2023-12-20T07:43:28;12.50;48.70
33943;DHT22;66763;47.856;17.462;2023-12-20T07:45:53;12.40;49.10
33943;DHT22;66763;47.856;17.462;2023-12-20T07:48:18;12.00;48.50
33943;DHT22;66763;47.856;17.462;2023-12-20T07:50:44;12.40;49.30
33943;DHT22;66763;47.856;17.462;2023-12-20T07:53:09;12.50;48.90
33943;DHT22;66763;47.856;17.462;2023-12-20T07:55:35;12.30;49.30
33943;DHT22;66763;47.856;17.462;2023-12-20T07:58:00;12.10;48.80
33943;DHT22;66763;47.856;17.462;2023-12-20T08:00:26;11.90;48.80
33943;DHT22;66763;47.856;17.462;2023-12-20T08:02:52;12.30;49.40
33943;DHT22;66763;47.856;17.462;2023-12-20T08:05:17;12.20;49.50
33943;DHT22;66763;47.856;17.462;2023-12-20T08:07:43;12.20;49.50
33943;DHT22;66763;47.856;17.462;2023-12-20T08:10:09;12.00;48.90
33943;DHT22;66763;47.856;17.462;2023-12-20T08:12:34;12.60;49.30
33943;DHT22;66763;47.856;17.462;2023-12-20T08:15:00;12.10;49.00
33943;DHT22;66763;47.856;17.462;2023-12-20T08:17:26;11.60;49.30
33943;DHT22;66763;47.856;17.462;2023-12-20T08:19:52;12.10;49.60
33943;DHT22;66763;47.856;17.462;2023-12-20T08:22:17;12.10;49.70
33943;DHT22;66763;47.856;17.462;2023-12-20T08:24:43;11.90;49.50
33943;DHT22;66763;47.856;17.462;2023-12-20T08:27:08;12.00;49.60
33943;DHT22;66763;47.856;17.462;2023-12-20T08:29:34;12.00;49.20
33943;DHT22;66763;47.856;17.462;2023-12-20T08:32:00;11.90;49.70
33943;DHT22;66763;47.856;17.462;2023-12-20T08:34:25;12.00;49.30
33943;DHT22;66763;47.856;17.462;2023-12-20T08:36:51;11.90;49.70
33943;DHT22;66763;47.856;17.462;2023-12-20T08:39:17;11.90;49.60
33943;DHT22;66763;47.856;17.462;2023-12-20T08:41:43;11.90;49.70
33943;DHT22;66763;47.856;17.462;2023-12-20T08:44:08;11.90;49.70
33943;DHT22;66763;47.856;17.462;2023-12-20T08:46:34;11.90;49.70
33943;DHT22;66763;47.856;17.462;2023-12-20T08:49:00;11.80;49.70
33943;DHT22;66763;47.856;17.462;2023-12-20T08:51:26;11.80;49.70
33943;DHT22;66763;47.856;17.462;2023-12-20T08:53:51;11.70;49.10
33943;DHT22;66763;47.856;17.462;2023-12-20T08:56:17;11.80;49.70
33943;DHT22;66763;47.856;17.462;2023-12-20T08:58:43;11.90;49.80
33943;DHT22;66763;47.856;17.462;2023-12-20T09:01:08;11.80;49.80
33943;DHT22;66763;47.856;17.462;2023-12-20T09:03:34;11.50;49.20
33943;DHT22;66763;47.856;17.462;2023-12-20T09:06:00;11.80;49.80
33943;DHT22;66763;47.856;17.462;2023-12-20T09:08:25;11.80;49.80
33943;DHT22;66763;47.856;17.462;2023-12-20T09:10:51;11.80;49.90
33943;DHT22;66763;47.856;17.462;2023-12-20T09:13:16;12.20;49.70
33943;DHT22;66763;47.856;17.462;2023-12-20T09:15:42;11.80;50.00
33943;DHT22;66763;47.856;17.462;2023-12-20T09:18:07;11.70;49.90
33943;DHT22;66763;47.856;17.462;2023-12-20T09:20:33;11.70;49.40
33943;DHT22;66763;47.856;17.462;2023-12-20T09:22:58;11.70;50.00
33943;DHT22;66763;47.856;17.462;2023-12-20T09:25:24;11.60;49.90
33943;DHT22;66763;47.856;17.462;2023-12-20T09:27:51;11.60;49.90
33943;DHT22;66763;47.856;17.462;2023-12-20T09:30:17;11.70;49.60
33943;DHT22;66763;47.856;17.462;2023-12-20T09:32:43;11.80;50.00
33943;DHT22;66763;47.856;17.462;2023-12-20T09:35:08;11.50;49.40
33943;DHT22;66763;47.856;17.462;2023-12-20T09:37:34;11.50;49.90
33943;DHT22;66763;47.856;17.462;2023-12-20T09:39:59;11.60;50.00
33943;DHT22;66763;47.856;17.462;2023-12-20T09:42:29;11.90;50.80
33943;DHT22;66763;47.856;17.462;2023-12-20T09:44:56;11.60;49.60
33943;DHT22;66763;47.856;17.462;2023-12-20T09:47:24;11.60;50.10
33943;DHT22;66763;47.856;17.462;2023-12-20T09:49:50;11.60;50.10
33943;DHT22;66763;47.856;17.462;2023-12-20T09:52:16;11.60;49.60
33943;DHT22;66763;47.856;17.462;2023-12-20T09:54:43;11.50;50.10
33943;DHT22;66763;47.856;17.462;2023-12-20T09:57:09;11.60;50.00
33943;DHT22;66763;47.856;17.462;2023-12-20T09:59:34;11.50;50.00
33943;DHT22;66763;47.856;17.462;2023-12-20T10:02:00;11.60;50.10
33943;DHT22;66763;47.856;17.462;2023-12-20T10:04:26;11.50;50.10
33943;DHT22;66763;47.856;17.462;2023-12-20T10:06:52;11.50;50.10
33943;DHT22;66763;47.856;17.462;2023-12-20T10:09:18;11.50;50.10
33943;DHT22;66763;47.856;17.462;2023-12-20T10:11:43;11.50;50.10
33943;DHT22;66763;47.856;17.462;2023-12-20T10:14:10;11.50;50.10
33943;DHT22;66763;47.856;17.462;2023-12-20T10:16:35;11.50;50.10
33943;DHT22;66763;47.856;17.462;2023-12-20T10:19:01;11.50;50.10
33943;DHT22;66763;47.856;17.462;2023-12-20T10:21:26;11.40;50.10
33943;DHT22;66763;47.856;17.462;2023-12-20T10:23:53;11.40;50.80
33943;DHT22;66763;47.856;17.462;2023-12-20T10:26:19;11.50;49.70
33943;DHT22;66763;47.856;17.462;2023-12-20T10:28:46;11.70;49.80
33943;DHT22;66763;47.856;17.462;2023-12-20T10:33:37;11.50;49.70
33943;DHT22;66763;47.856;17.462;2023-12-20T10:36:05;11.50;49.90
33943;DHT22;66763;47.856;17.462;2023-12-20T10:38:31;11.50;49.80
33943;DHT22;66763;47.856;17.462;2023-12-20T10:40:57;11.30;50.10
33943;DHT22;66763;47.856;17.462;2023-12-20T10:43:26;11.40;50.20
33943;DHT22;66763;47.856;17.462;2023-12-20T10:45:51;11.40;50.20
33943;DHT22;66763;47.856;17.462;2023-12-20T10:48:17;11.40;50.30
33943;DHT22;66763;47.856;17.462;2023-12-20T10:50:43;11.30;50.40
33943;DHT22;66763;47.856;17.462;2023-12-20T10:53:09;11.60;49.90
33943;DHT22;66763;47.856;17.462;2023-12-20T10:55:37;11.10;49.60
33943;DHT22;66763;47.856;17.462;2023-12-20T10:58:11;11.40;50.30
33943;DHT22;66763;47.856;17.462;2023-12-20T11:00:39;11.40;50.20
33943;DHT22;66763;47.856;17.462;2023-12-20T11:03:06;11.30;50.20
33943;DHT22;66763;47.856;17.462;2023-12-20T11:08:04;11.60;50.00
33943;DHT22;66763;47.856;17.462;2023-12-20T11:10:33;11.20;50.20
33943;DHT22;66763;47.856;17.462;2023-12-20T11:13:09;11.50;50.00
33943;DHT22;66763;47.856;17.462;2023-12-20T11:15:36;11.30;50.30
33943;DHT22;66763;47.856;17.462;2023-12-20T11:18:01;11.30;50.90
33943;DHT22;66763;47.856;17.462;2023-12-20T11:20:39;11.10;49.70
33943;DHT22;66763;47.856;17.462;2023-12-20T11:23:05;11.50;50.00
33943;DHT22;66763;47.856;17.462;2023-12-20T11:28:13;11.30;50.40
33943;DHT22;66763;47.856;17.462;2023-12-20T11:33:07;11.10;49.80
33943;DHT22;66763;47.856;17.462;2023-12-20T11:35:33;11.60;50.20
33943;DHT22;66763;47.856;17.462;2023-12-20T11:38:00;11.30;50.50
33943;DHT22;66763;47.856;17.462;2023-12-20T11:40:26;11.20;50.50
33943;DHT22;66763;47.856;17.462;2023-12-20T11:42:52;11.30;50.50
33943;DHT22;66763;47.856;17.462;2023-12-20T11:45:20;11.20;50.40
33943;DHT22;66763;47.856;17.462;2023-12-20T11:47:47;11.00;49.80
33943;DHT22;66763;47.856;17.462;2023-12-20T11:50:15;11.40;50.50
33943;DHT22;66763;47.856;17.462;2023-12-20T11:52:41;11.50;50.10
33943;DHT22;66763;47.856;17.462;2023-12-20T11:55:06;11.00;50.40
33943;DHT22;66763;47.856;17.462;2023-12-20T11:57:32;11.20;50.50
33943;DHT22;66763;47.856;17.462;2023-12-20T11:59:57;11.20;51.10
33943;DHT22;66763;47.856;17.462;2023-12-20T12:02:23;11.60;50.30
33943;DHT22;66763;47.856;17.462;2023-12-20T12:04:49;11.60;50.30
33943;DHT22;66763;47.856;17.462;2023-12-20T12:07:16;11.10;49.90
33943;DHT22;66763;47.856;17.462;2023-12-20T12:09:41;11.20;50.60
33943;DHT22;66763;47.856;17.462;2023-12-20T12:12:07;10.90;49.90
33943;DHT22;66763;47.856;17.462;2023-12-20T12:14:33;11.30;51.20
33943;DHT22;66763;47.856;17.462;2023-12-20T12:17:00;11.10;50.50
33943;DHT22;66763;47.856;17.462;2023-12-20T12:19:26;11.20;50.70
33943;DHT22;66763;47.856;17.462;2023-12-20T12:22:13;11.10;50.50
33943;DHT22;66763;47.856;17.462;2023-12-20T12:24:45;11.10;50.60
33943;DHT22;66763;47.856;17.462;2023-12-20T12:27:11;11.10;50.50
33943;DHT22;66763;47.856;17.462;2023-12-20T12:29:37;11.20;50.70
33943;DHT22;66763;47.856;17.462;2023-12-20T12:32:06;11.20;50.70
33943;DHT22;66763;47.856;17.462;2023-12-20T12:34:35;11.10;50.10
33943;DHT22;66763;47.856;17.462;2023-12-20T12:37:01;11.00;50.60
33943;DHT22;66763;47.856;17.462;2023-12-20T12:39:26;11.20;50.30
33943;DHT22;66763;47.856;17.462;2023-12-20T12:41:52;11.10;50.60
33943;DHT22;66763;47.856;17.462;2023-12-20T12:44:17;11.00;50.10
33943;DHT22;66763;47.856;17.462;2023-12-20T12:46:46;11.20;50.80
33943;DHT22;66763;47.856;17.462;2023-12-20T12:49:11;11.20;50.80
33943;DHT22;66763;47.856;17.462;2023-12-20T12:51:37;11.10;50.60
33943;DHT22;66763;47.856;17.462;2023-12-20T12:54:02;11.10;50.00
33943;DHT22;66763;47.856;17.462;2023-12-20T12:56:28;11.30;50.60
33943;DHT22;66763;47.856;17.462;2023-12-20T12:58:54;11.40;50.40
33943;DHT22;66763;47.856;17.462;2023-12-20T13:01:20;11.50;50.30
33943;DHT22;66763;47.856;17.462;2023-12-20T13:03:45;11.60;50.20
33943;DHT22;66763;47.856;17.462;2023-12-20T13:06:11;11.70;50.10
33943;DHT22;66763;47.856;17.462;2023-12-20T13:08:36;11.90;50.00
33943;DHT22;66763;47.856;17.462;2023-12-20T13:11:02;11.60;49.20
33943;DHT22;66763;47.856;17.462;2023-12-20T13:13:32;12.00;49.80
33943;DHT22;66763;47.856;17.462;2023-12-20T13:15:57;12.20;49.20
33943;DHT22;66763;47.856;17.462;2023-12-20T13:18:23;12.10;49.50
33943;DHT22;66763;47.856;17.462;2023-12-20T13:20:48;12.20;49.50
33943;DHT22;66763;47.856;17.462;2023-12-20T13:23:14;12.20;49.40
33943;DHT22;66763;47.856;17.462;2023-12-20T13:25:40;12.10;48.80
33943;DHT22;66763;47.856;17.462;2023-12-20T13:28:05;12.30;49.30
33943;DHT22;66763;47.856;17.462;2023-12-20T13:30:31;12.30;49.20
33943;DHT22;66763;47.856;17.462;2023-12-20T13:32:56;12.50;49.80
33943;DHT22;66763;47.856;17.462;2023-12-20T13:35:22;12.70;48.80
33943;DHT22;66763;47.856;17.462;2023-12-20T13:37:47;12.50;48.60
33943;DHT22;66763;47.856;17.462;2023-12-20T13:40:13;12.60;49.20
33943;DHT22;66763;47.856;17.462;2023-12-20T13:42:39;12.60;49.10
33943;DHT22;66763;47.856;17.462;2023-12-20T13:45:05;12.70;48.60
33943;DHT22;66763;47.856;17.462;2023-12-20T13:47:31;12.60;49.00
33943;DHT22;66763;47.856;17.462;2023-12-20T13:49:56;12.60;49.00
33943;DHT22;66763;47.856;17.462;2023-12-20T13:52:22;12.60;48.60
33943;DHT22;66763;47.856;17.462;2023-12-20T13:54:47;12.60;49.10
33943;DHT22;66763;47.856;17.462;2023-12-20T13:57:13;12.60;49.20
33943;DHT22;66763;47.856;17.462;2023-12-20T13:59:38;12.60;49.80
33943;DHT22;66763;47.856;17.462;2023-12-20T14:02:04;12.60;49.30
33943;DHT22;66763;47.856;17.462;2023-12-20T14:04:30;12.70;48.90
33943;DHT22;66763;47.856;17.462;2023-12-20T14:06:56;12.50;48.90
33943;DHT22;66763;47.856;17.462;2023-12-20T14:09:21;12.40;49.40
33943;DHT22;66763;47.856;17.462;2023-12-20T14:11:47;12.40;49.50
33943;DHT22;66763;47.856;17.462;2023-12-20T14:14:12;12.60;49.20
33943;DHT22;66763;47.856;17.462;2023-12-20T14:16:38;12.60;49.30
33943;DHT22;66763;47.856;17.462;2023-12-20T14:19:03;12.60;49.40
33943;DHT22;66763;47.856;17.462;2023-12-20T14:21:31;12.40;49.80
33943;DHT22;66763;47.856;17.462;2023-12-20T14:23:57;12.40;49.90
33943;DHT22;66763;47.856;17.462;2023-12-20T14:26:22;12.30;49.80
33943;DHT22;66763;47.856;17.462;2023-12-20T14:28:48;12.30;50.00
33943;DHT22;66763;47.856;17.462;2023-12-20T14:31:13;12.00;49.40
33943;DHT22;66763;47.856;17.462;2023-12-20T14:33:39;12.30;50.10
33943;DHT22;66763;47.856;17.462;2023-12-20T14:36:05;12.40;49.80
33943;DHT22;66763;47.856;17.462;2023-12-20T14:38:31;12.20;50.20
33943;DHT22;66763;47.856;17.462;2023-12-20T14:40:56;12.20;50.20
33943;DHT22;66763;47.856;17.462;2023-12-20T14:43:22;12.00;50.20
33943;DHT22;66763;47.856;17.462;2023-12-20T14:45:48;12.00;50.30
33943;DHT22;66763;47.856;17.462;2023-12-20T14:48:13;12.10;50.30
33943;DHT22;66763;47.856;17.462;2023-12-20T14:50:38;12.50;50.50
33943;DHT22;66763;47.856;17.462;2023-12-20T14:53:06;12.00;50.40
33943;DHT22;66763;47.856;17.462;2023-12-20T14:55:32;12.20;50.50
33943;DHT22;66763;47.856;17.462;2023-12-20T14:57:57;12.00;50.00
33943;DHT22;66763;47.856;17.462;2023-12-20T15:00:23;12.00;50.10
33943;DHT22;66763;47.856;17.462;2023-12-20T15:02:48;12.20;50.30
33943;DHT22;66763;47.856;17.462;2023-12-20T15:05:14;11.90;50.60
33943;DHT22;66763;47.856;17.462;2023-12-20T15:07:40;11.90;50.60
33943;DHT22;66763;47.856;17.462;2023-12-20T15:10:06;12.00;50.70
33943;DHT22;66763;47.856;17.462;2023-12-20T15:12:31;12.00;50.20
33943;DHT22;66763;47.856;17.462;2023-12-20T15:14:59;11.90;50.70
33943;DHT22;66763;47.856;17.462;2023-12-20T15:17:24;11.90;50.70